createdAt,value
2022-11-29T00:00:41.590Z,3.02
2022-11-29T00:01:43.516Z,3.04
2022-11-29T00:02:45.262Z,3.00
2022-11-29T00:03:46.908Z,2.93
2022-11-29T00:04:48.519Z,2.71
2022-11-29T00:05:51.598Z,2.60
2022-11-29T00:06:53.100Z,2.58
2022-11-29T00:07:54.714Z,2.51
2022-11-29T00:08:59.068Z,2.41
2022-11-29T00:10:00.699Z,2.31
2022-11-29T00:11:11.358Z,2.33
2022-11-29T00:12:12.898Z,2.34
2022-11-29T00:13:14.767Z,2.39
2022-11-29T00:14:18.704Z,2.34
2022-11-29T00:15:20.307Z,2.30
2022-11-29T00:16:21.938Z,2.34
2022-11-29T00:17:23.538Z,2.41
2022-11-29T00:18:25.098Z,2.45
2022-11-29T00:19:26.646Z,2.45
2022-11-29T00:20:28.193Z,2.30
2022-11-29T00:21:29.841Z,2.15
2022-11-29T00:22:31.358Z,2.08
2022-11-29T00:23:33.034Z,2.08
2022-11-29T00:24:34.778Z,2.15
2022-11-29T00:25:38.601Z,2.10
2022-11-29T00:26:40.281Z,1.95
2022-11-29T00:27:41.825Z,1.91
2022-11-29T00:28:43.362Z,2.01
2022-11-29T00:29:44.919Z,2.00
2022-11-29T00:30:47.318Z,1.93
2022-11-29T00:31:49.103Z,1.72
2022-11-29T00:32:50.705Z,1.63
2022-11-29T00:33:52.630Z,1.57
2022-11-29T00:34:56.397Z,1.54
2022-11-29T00:36:01.598Z,1.47
2022-11-29T00:37:03.277Z,1.47
2022-11-29T00:38:04.837Z,1.49
2022-11-29T00:39:07.223Z,1.50
2022-11-29T00:40:09.121Z,1.54
2022-11-29T00:41:11.714Z,1.58
2022-11-29T00:42:13.365Z,1.54
2022-11-29T00:43:14.990Z,1.54
2022-11-29T00:44:20.215Z,1.50
2022-11-29T00:45:22.234Z,1.55
2022-11-29T00:46:25.157Z,1.59
2022-11-29T00:47:26.860Z,1.57
2022-11-29T00:48:28.561Z,1.45
2022-11-29T00:49:30.097Z,1.34
2022-11-29T00:50:31.679Z,1.23
2022-11-29T00:51:33.407Z,1.17
2022-11-29T00:52:35.161Z,1.19
2022-11-29T00:53:37.848Z,1.21
2022-11-29T00:54:39.398Z,1.27
2022-11-29T00:55:41.045Z,1.18
2022-11-29T00:56:42.987Z,1.26
2022-11-29T00:57:44.539Z,1.28
2022-11-29T00:58:46.228Z,1.30
2022-11-29T00:59:47.793Z,1.24
2022-11-29T01:00:49.753Z,1.22
2022-11-29T01:01:51.374Z,1.19
2022-11-29T01:02:53.016Z,1.18
2022-11-29T01:03:54.664Z,1.24
2022-11-29T01:04:56.232Z,1.31
2022-11-29T01:06:09.974Z,1.29
2022-11-29T01:07:11.611Z,1.33
2022-11-29T01:08:14.353Z,1.32
2022-11-29T01:09:15.889Z,1.29
2022-11-29T01:10:17.522Z,1.29
2022-11-29T01:11:22.341Z,1.29
2022-11-29T01:12:23.921Z,1.24
2022-11-29T01:13:25.468Z,1.32
2022-11-29T01:14:27.067Z,1.36
2022-11-29T01:15:28.888Z,1.32
2022-11-29T01:16:31.668Z,1.31
2022-11-29T01:17:36.877Z,1.36
2022-11-29T01:18:39.109Z,1.51
2022-11-29T01:19:40.935Z,1.67
2022-11-29T01:20:43.961Z,1.76
2022-11-29T01:21:45.525Z,1.89
2022-11-29T01:22:47.135Z,2.00
2022-11-29T01:23:50.321Z,2.08
2022-11-29T01:24:51.961Z,2.18
2022-11-29T01:26:02.187Z,2.24
2022-11-29T01:27:03.706Z,2.33
2022-11-29T01:28:05.297Z,2.39
2022-11-29T01:29:06.945Z,2.47
2022-11-29T01:30:10.163Z,2.51
2022-11-29T01:31:15.555Z,2.59
2022-11-29T01:32:17.296Z,2.66
2022-11-29T01:33:18.999Z,2.69
2022-11-29T01:34:20.527Z,2.70
2022-11-29T01:35:22.042Z,2.75
2022-11-29T01:36:24.787Z,2.82
2022-11-29T01:37:29.108Z,2.91
2022-11-29T01:38:31.115Z,2.95
2022-11-29T01:39:32.644Z,2.99
2022-11-29T01:40:34.237Z,2.98
2022-11-29T01:41:37.778Z,2.97
2022-11-29T01:42:39.308Z,3.00
2022-11-29T01:44:07.049Z,3.05
2022-11-29T01:45:28.973Z,3.04
2022-11-29T01:46:33.373Z,3.06
2022-11-29T01:47:40.975Z,3.09
2022-11-29T01:48:42.542Z,3.13
2022-11-29T01:49:49.923Z,2.94
2022-11-29T01:50:54.627Z,2.86
2022-11-29T01:52:02.438Z,2.70
2022-11-29T01:53:04.798Z,2.60
2022-11-29T01:54:08.685Z,2.56
2022-11-29T01:55:10.499Z,2.46
2022-11-29T01:56:14.426Z,2.43
2022-11-29T01:57:16.591Z,2.35
2022-11-29T01:58:18.352Z,2.36
2022-11-29T01:59:23.379Z,2.42
2022-11-29T02:00:25.074Z,2.47
2022-11-29T02:01:26.738Z,2.43
2022-11-29T02:02:35.923Z,2.34
2022-11-29T02:03:37.677Z,2.28
2022-11-29T02:04:42.390Z,2.28
2022-11-29T02:05:54.975Z,2.31
2022-11-29T02:06:56.469Z,2.33
2022-11-29T02:08:00.398Z,2.35
2022-11-29T02:09:02.613Z,2.40
2022-11-29T02:10:05.900Z,2.38
2022-11-29T02:11:35.682Z,2.43
2022-11-29T02:12:50.289Z,2.42
2022-11-29T02:14:10.745Z,2.44
2022-11-29T02:15:45.475Z,2.56
2022-11-29T02:17:14.709Z,2.47
2022-11-29T02:18:48.677Z,2.20
2022-11-29T02:20:08.978Z,2.23
2022-11-29T02:21:20.002Z,2.32
2022-11-29T02:22:43.475Z,2.38
2022-11-29T02:23:45.007Z,2.42
2022-11-29T02:25:11.825Z,2.47
2022-11-29T02:26:31.870Z,2.46
2022-11-29T02:27:55.300Z,2.42
2022-11-29T02:29:05.740Z,2.37
2022-11-29T02:30:38.984Z,2.46
2022-11-29T02:32:04.268Z,2.55
2022-11-29T02:33:12.095Z,2.50
2022-11-29T02:34:39.865Z,2.47
2022-11-29T02:36:09.534Z,2.34
2022-11-29T02:37:46.326Z,2.22
2022-11-29T02:39:15.674Z,2.11
2022-11-29T02:40:28.522Z,2.23
2022-11-29T02:41:33.107Z,2.33
2022-11-29T02:42:55.648Z,2.38
2022-11-29T02:44:26.005Z,2.42
2022-11-29T02:45:36.797Z,2.45
2022-11-29T02:47:01.251Z,2.34
2022-11-29T02:48:11.541Z,2.13
2022-11-29T02:49:28.207Z,2.17
2022-11-29T02:50:29.689Z,2.26
2022-11-29T02:51:42.482Z,2.18
2022-11-29T02:52:59.875Z,2.11
2022-11-29T02:54:26.509Z,2.01
2022-11-29T02:55:38.450Z,2.01
2022-11-29T02:56:46.719Z,1.97
2022-11-29T02:58:17.469Z,1.97
2022-11-29T02:59:37.190Z,1.95
2022-11-29T03:00:47.095Z,2.08
2022-11-29T03:02:27.581Z,2.28
2022-11-29T03:03:43.608Z,2.42
2022-11-29T03:05:14.062Z,2.55
2022-11-29T03:06:31.007Z,2.66
2022-11-29T03:07:56.108Z,2.65
2022-11-29T03:09:09.558Z,2.61
2022-11-29T03:10:33.769Z,2.70
2022-11-29T03:11:51.034Z,2.82
2022-11-29T03:12:54.454Z,2.87
2022-11-29T03:14:13.246Z,2.85
2022-11-29T03:15:30.313Z,2.74
2022-11-29T03:16:59.424Z,2.39
2022-11-29T03:18:06.825Z,2.34
2022-11-29T03:19:29.746Z,2.41
2022-11-29T03:21:01.650Z,2.45
2022-11-29T03:22:12.407Z,2.54
2022-11-29T03:23:17.716Z,2.66
2022-11-29T03:24:46.548Z,2.79
2022-11-29T03:26:21.064Z,2.93
2022-11-29T03:27:43.685Z,3.03
2022-11-29T03:29:07.149Z,3.06
2022-11-29T03:30:12.555Z,3.10
2022-11-29T03:31:21.602Z,3.16
2022-11-29T03:32:34.606Z,3.20
2022-11-29T03:33:50.847Z,3.18
2022-11-29T03:35:28.281Z,3.19
2022-11-29T03:36:41.193Z,3.09
2022-11-29T03:37:51.955Z,3.08
2022-11-29T03:38:58.619Z,3.09
2022-11-29T03:40:09.803Z,3.16
2022-11-29T03:41:28.323Z,3.12
2022-11-29T03:42:45.485Z,3.06
2022-11-29T03:44:07.211Z,2.93
2022-11-29T03:45:18.725Z,3.00
2022-11-29T03:46:57.244Z,3.06
2022-11-29T03:48:33.067Z,3.15
2022-11-29T03:49:47.685Z,3.16
2022-11-29T03:50:57.691Z,3.20
2022-11-29T03:52:21.323Z,3.21
2022-11-29T03:53:47.244Z,3.23
2022-11-29T03:55:04.038Z,3.27
2022-11-29T03:56:23.207Z,3.33
2022-11-29T03:57:34.921Z,3.37
2022-11-29T03:58:42.478Z,3.40
2022-11-29T04:00:05.705Z,3.26
2022-11-29T04:01:24.920Z,3.23
2022-11-29T04:02:44.438Z,3.20
2022-11-29T04:04:23.335Z,3.23
2022-11-29T04:05:46.527Z,3.20
2022-11-29T04:07:08.907Z,3.20
2022-11-29T04:08:37.786Z,3.10
2022-11-29T04:10:01.191Z,2.91
2022-11-29T04:11:08.858Z,2.89
2022-11-29T04:12:40.492Z,2.74
2022-11-29T04:14:00.563Z,2.72
2022-11-29T04:15:39.363Z,2.72
2022-11-29T04:16:43.843Z,2.65
2022-11-29T04:17:48.217Z,2.69
2022-11-29T04:19:17.589Z,2.70
2022-11-29T04:20:54.682Z,2.84
2022-11-29T04:22:19.845Z,2.84
2022-11-29T04:23:46.714Z,2.80
2022-11-29T04:25:13.087Z,2.78
2022-11-29T04:26:35.029Z,2.78
2022-11-29T04:27:49.576Z,2.72
2022-11-29T04:29:15.638Z,2.73
2022-11-29T04:30:23.654Z,2.74
2022-11-29T04:32:02.740Z,2.75
2022-11-29T04:33:23.024Z,2.69
2022-11-29T04:34:43.727Z,2.70
2022-11-29T04:36:22.943Z,2.55
2022-11-29T04:37:45.133Z,2.47
2022-11-29T04:39:01.678Z,2.40
2022-11-29T04:40:14.930Z,2.38
2022-11-29T04:41:55.555Z,2.42
2022-11-29T04:43:15.727Z,2.41
2022-11-29T04:44:35.836Z,2.37
2022-11-29T04:45:40.445Z,2.35
2022-11-29T04:46:54.828Z,2.46
2022-11-29T04:48:22.747Z,2.51
2022-11-29T04:49:56.738Z,2.58
2022-11-29T04:51:01.213Z,2.59
2022-11-29T04:52:28.091Z,2.61
2022-11-29T04:54:04.496Z,2.56
2022-11-29T04:55:31.230Z,2.53
2022-11-29T04:56:47.117Z,2.53
2022-11-29T04:57:57.655Z,2.51
2022-11-29T04:59:07.819Z,2.48
2022-11-29T05:00:12.143Z,2.49
2022-11-29T05:01:41.374Z,2.57
2022-11-29T05:03:13.597Z,2.69
2022-11-29T05:04:28.179Z,2.65
2022-11-29T05:05:35.698Z,2.61
2022-11-29T05:06:55.989Z,2.71
2022-11-29T05:08:03.460Z,2.79
2022-11-29T05:09:33.158Z,2.91
2022-11-29T05:11:14.368Z,3.02
2022-11-29T05:12:29.665Z,2.98
2022-11-29T05:13:54.529Z,2.79
2022-11-29T05:15:29.989Z,2.45
2022-11-29T05:17:04.369Z,2.36
2022-11-29T05:18:10.061Z,2.45
2022-11-29T05:19:18.142Z,2.55
2022-11-29T05:20:38.470Z,2.68
2022-11-29T05:22:28.059Z,2.87
2022-11-29T05:23:47.955Z,2.96
2022-11-29T05:25:27.676Z,3.04
2022-11-29T05:26:31.756Z,3.14
2022-11-29T05:27:49.283Z,3.21
2022-11-29T05:29:11.911Z,3.32
2022-11-29T05:30:20.938Z,3.39
2022-11-29T05:31:57.819Z,3.37
2022-11-29T05:33:31.636Z,3.33
2022-11-29T05:34:52.025Z,3.32
2022-11-29T05:36:03.380Z,3.19
2022-11-29T05:37:19.330Z,3.02
2022-11-29T05:38:45.378Z,2.84
2022-11-29T05:39:49.526Z,2.79
2022-11-29T05:41:17.181Z,2.76
2022-11-29T05:42:32.487Z,2.52
2022-11-29T05:43:59.858Z,2.34
2022-11-29T05:45:10.559Z,2.35
2022-11-29T05:46:27.391Z,2.49
2022-11-29T05:48:04.657Z,2.65
2022-11-29T05:49:27.480Z,2.79
2022-11-29T05:50:37.990Z,2.91
2022-11-29T05:51:53.768Z,3.00
2022-11-29T05:53:06.999Z,2.96
2022-11-29T05:54:36.974Z,2.94
2022-11-29T05:56:12.612Z,2.99
2022-11-29T05:57:47.587Z,3.06
2022-11-29T05:59:12.879Z,3.12
2022-11-29T06:00:17.499Z,3.18
2022-11-29T06:01:26.155Z,3.21
2022-11-29T06:02:27.860Z,3.28
2022-11-29T06:03:41.874Z,3.31
2022-11-29T06:05:03.656Z,3.30
2022-11-29T06:06:35.434Z,3.37
2022-11-29T06:07:43.064Z,3.38
2022-11-29T06:08:48.478Z,3.42
2022-11-29T06:10:17.804Z,3.46
2022-11-29T06:11:52.184Z,3.51
2022-11-29T06:13:27.271Z,3.58
2022-11-29T06:14:50.466Z,3.57
2022-11-29T06:16:04.177Z,3.52
2022-11-29T06:17:38.783Z,3.44
2022-11-29T06:18:55.162Z,3.45
2022-11-29T06:20:04.344Z,3.47
2022-11-29T06:21:17.382Z,3.48
2022-11-29T06:22:21.329Z,3.56
2022-11-29T06:23:42.956Z,3.62
2022-11-29T06:25:05.016Z,3.66
2022-11-29T06:26:13.143Z,3.69
2022-11-29T06:27:26.679Z,3.70
2022-11-29T06:29:02.227Z,3.72
2022-11-29T06:30:13.478Z,3.73
2022-11-29T06:31:33.940Z,3.81
2022-11-29T06:32:44.658Z,3.73
2022-11-29T06:34:04.886Z,3.65
2022-11-29T06:35:47.592Z,3.71
2022-11-29T06:37:05.463Z,3.64
2022-11-29T06:38:28.513Z,3.59
2022-11-29T06:39:30.338Z,3.62
2022-11-29T06:40:33.132Z,3.66
2022-11-29T06:41:35.059Z,3.71
2022-11-29T06:42:36.594Z,3.69
2022-11-29T06:43:38.754Z,3.60
2022-11-29T06:44:40.651Z,3.57
2022-11-29T06:45:50.237Z,3.61
2022-11-29T06:46:53.884Z,3.56
2022-11-29T06:48:03.582Z,3.46
2022-11-29T06:49:27.916Z,3.35
2022-11-29T06:50:38.159Z,3.32
2022-11-29T06:51:58.045Z,3.33
2022-11-29T06:53:37.877Z,3.35
2022-11-29T06:55:15.449Z,3.35
2022-11-29T06:56:55.209Z,3.40
2022-11-29T06:58:55.310Z,3.57
2022-11-29T07:00:18.849Z,3.65
2022-11-29T07:01:31.510Z,3.72
2022-11-29T07:02:54.188Z,3.78
2022-11-29T07:04:01.663Z,3.83
2022-11-29T07:05:18.631Z,3.86
2022-11-29T07:06:27.356Z,3.79
2022-11-29T07:07:29.302Z,3.82
2022-11-29T07:08:31.162Z,3.88
2022-11-29T07:09:34.642Z,3.95
2022-11-29T07:10:38.787Z,4.01
2022-11-29T07:11:40.844Z,3.95
2022-11-29T07:12:43.000Z,4.01
2022-11-29T07:13:44.829Z,4.01
2022-11-29T07:14:52.380Z,4.08
2022-11-29T07:16:19.910Z,4.10
2022-11-29T07:17:36.406Z,4.22
2022-11-29T07:19:07.637Z,4.29
2022-11-29T07:20:31.307Z,4.04
2022-11-29T07:21:51.702Z,3.97
2022-11-29T07:23:02.344Z,4.09
2022-11-29T07:24:51.057Z,4.17
2022-11-29T07:26:07.817Z,4.09
2022-11-29T07:27:32.760Z,3.84
2022-11-29T07:29:03.764Z,3.67
2022-11-29T07:30:28.221Z,3.75
2022-11-29T07:31:48.842Z,3.94
2022-11-29T07:33:09.101Z,3.79
2022-11-29T07:34:13.605Z,3.73
2022-11-29T07:35:30.746Z,3.67
2022-11-29T07:36:35.344Z,3.65
2022-11-29T07:37:48.018Z,3.67
2022-11-29T07:39:10.945Z,3.82
2022-11-29T07:40:18.218Z,3.96
2022-11-29T07:41:57.321Z,3.79
2022-11-29T07:43:17.115Z,3.83
2022-11-29T07:44:24.598Z,3.90
2022-11-29T07:45:29.934Z,3.94
2022-11-29T07:46:31.501Z,3.92
2022-11-29T07:47:35.999Z,3.78
2022-11-29T07:48:37.861Z,3.86
2022-11-29T07:49:39.389Z,3.89
2022-11-29T07:50:41.341Z,3.96
2022-11-29T07:51:43.424Z,3.97
2022-11-29T07:52:44.975Z,3.95
2022-11-29T07:53:46.755Z,3.95
2022-11-29T07:54:48.648Z,3.93
2022-11-29T07:55:50.531Z,4.06
2022-11-29T07:56:52.118Z,4.16
2022-11-29T07:57:53.663Z,4.27
2022-11-29T07:58:55.280Z,4.26
2022-11-29T07:59:56.790Z,4.16
2022-11-29T08:00:58.425Z,4.14
2022-11-29T08:02:00.055Z,4.24
2022-11-29T08:03:01.709Z,4.26
2022-11-29T08:04:03.433Z,4.28
2022-11-29T08:05:05.280Z,4.38
2022-11-29T08:06:07.006Z,4.42
2022-11-29T08:07:08.577Z,4.45
2022-11-29T08:08:10.174Z,4.30
2022-11-29T08:09:11.838Z,4.25
2022-11-29T08:10:15.540Z,4.18
2022-11-29T08:11:17.297Z,4.16
2022-11-29T08:12:18.853Z,4.16
2022-11-29T08:13:21.226Z,4.22
2022-11-29T08:14:22.837Z,4.26
2022-11-29T08:15:25.485Z,4.27
2022-11-29T08:16:27.294Z,4.43
2022-11-29T08:17:28.917Z,4.57
2022-11-29T08:18:30.516Z,4.61
2022-11-29T08:19:32.178Z,4.64
2022-11-29T08:20:33.708Z,4.65
2022-11-29T08:21:35.222Z,4.55
2022-11-29T08:22:36.838Z,4.48
2022-11-29T08:23:38.380Z,4.46
2022-11-29T08:24:39.988Z,4.54
2022-11-29T08:25:41.898Z,4.55
2022-11-29T08:26:43.519Z,4.60
2022-11-29T08:27:45.060Z,4.60
2022-11-29T08:28:51.898Z,4.51
2022-11-29T08:29:53.483Z,4.37
2022-11-29T08:31:06.326Z,4.26
2022-11-29T08:32:09.029Z,4.26
2022-11-29T08:33:10.613Z,4.34
2022-11-29T08:34:12.655Z,4.40
2022-11-29T08:35:14.331Z,4.43
2022-11-29T08:36:20.214Z,4.55
2022-11-29T08:37:21.880Z,4.64
2022-11-29T08:38:23.434Z,4.80
2022-11-29T08:39:25.099Z,4.91
2022-11-29T08:40:26.733Z,5.01
2022-11-29T08:41:29.671Z,5.05
2022-11-29T08:42:31.249Z,5.08
2022-11-29T08:43:33.131Z,5.15
2022-11-29T08:44:34.834Z,5.29
2022-11-29T08:45:36.487Z,5.37
2022-11-29T08:46:56.758Z,5.40
2022-11-29T08:47:58.339Z,5.44
2022-11-29T08:49:00.075Z,5.54
2022-11-29T08:50:06.243Z,5.59
2022-11-29T08:51:07.832Z,5.60
2022-11-29T08:52:27.906Z,5.56
2022-11-29T08:53:42.105Z,5.56
2022-11-29T08:54:44.135Z,5.58
2022-11-29T08:55:46.755Z,5.41
2022-11-29T08:58:13.297Z,5.32
2022-11-29T08:59:14.859Z,5.36
2022-11-29T09:00:17.838Z,5.45
2022-11-29T09:01:20.315Z,5.48
2022-11-29T09:02:21.956Z,5.47
2022-11-29T09:03:42.170Z,5.57
2022-11-29T09:04:43.853Z,5.66
2022-11-29T09:05:45.536Z,5.78
2022-11-29T09:06:49.632Z,5.85
2022-11-29T09:07:51.297Z,5.79
2022-11-29T09:08:56.520Z,5.82
2022-11-29T09:09:58.197Z,5.71
2022-11-29T09:10:59.900Z,5.56
2022-11-29T09:12:01.479Z,5.58
2022-11-29T09:13:03.042Z,5.73
2022-11-29T09:14:07.549Z,5.88
2022-11-29T09:15:10.663Z,5.98
2022-11-29T09:16:15.704Z,6.05
2022-11-29T09:17:17.217Z,6.10
2022-11-29T09:18:18.750Z,6.10
2022-11-29T09:19:20.335Z,6.15
2022-11-29T09:20:22.013Z,6.16
2022-11-29T09:21:25.990Z,6.24
2022-11-29T09:22:27.585Z,6.24
2022-11-29T09:23:29.213Z,6.24
2022-11-29T09:24:30.929Z,6.13
2022-11-29T09:25:32.478Z,6.17
2022-11-29T09:26:36.907Z,6.06
2022-11-29T09:27:38.505Z,5.94
2022-11-29T09:28:40.059Z,5.84
2022-11-29T09:29:41.639Z,5.74
2022-11-29T09:30:43.209Z,5.78
2022-11-29T09:31:45.338Z,5.82
2022-11-29T09:32:47.385Z,5.83
2022-11-29T09:33:49.123Z,5.88
2022-11-29T09:34:50.741Z,6.04
2022-11-29T09:35:58.062Z,6.11
2022-11-29T09:36:59.626Z,6.12
2022-11-29T09:38:01.298Z,6.21
2022-11-29T09:39:03.400Z,6.39
2022-11-29T09:40:05.625Z,6.46
2022-11-29T09:41:37.833Z,6.67
2022-11-29T09:42:55.646Z,6.82
2022-11-29T09:44:15.915Z,6.80
2022-11-29T09:45:20.809Z,6.85
2022-11-29T09:46:22.317Z,6.95
2022-11-29T09:47:26.918Z,7.07
2022-11-29T09:48:47.232Z,7.25
2022-11-29T09:50:10.532Z,7.32
2022-11-29T09:51:15.425Z,7.01
2022-11-29T09:52:42.955Z,6.92
2022-11-29T09:54:21.195Z,6.85
2022-11-29T09:55:37.850Z,6.89
2022-11-29T09:56:44.512Z,6.91
2022-11-29T09:57:48.118Z,7.05
2022-11-29T09:58:57.886Z,6.95
2022-11-29T10:00:05.047Z,6.86
2022-11-29T10:01:10.848Z,6.86
2022-11-29T10:02:22.365Z,6.90
2022-11-29T10:03:30.329Z,6.84
2022-11-29T10:04:41.043Z,6.90
2022-11-29T10:05:53.868Z,7.06
2022-11-29T10:07:14.651Z,7.22
2022-11-29T10:08:27.484Z,7.26
2022-11-29T10:09:37.882Z,7.27
2022-11-29T10:10:50.902Z,7.33
2022-11-29T10:11:55.249Z,7.33
2022-11-29T10:13:05.082Z,7.36
2022-11-29T10:14:16.429Z,7.21
2022-11-29T10:15:27.413Z,6.91
2022-11-29T10:16:43.815Z,6.68
2022-11-29T10:18:27.327Z,6.67
2022-11-29T10:19:41.865Z,6.93
2022-11-29T10:20:49.061Z,6.98
2022-11-29T10:22:03.597Z,7.00
2022-11-29T10:23:26.601Z,6.88
2022-11-29T10:24:29.529Z,6.95
2022-11-29T10:25:37.683Z,6.90
2022-11-29T10:26:39.333Z,6.82
2022-11-29T10:27:40.938Z,6.90
2022-11-29T10:28:47.678Z,6.91
2022-11-29T10:29:51.325Z,7.00
2022-11-29T10:30:58.476Z,7.33
2022-11-29T10:32:10.016Z,7.47
2022-11-29T10:33:28.947Z,7.32
2022-11-29T10:34:30.936Z,7.17
2022-11-29T10:35:33.572Z,7.13
2022-11-29T10:36:48.419Z,7.08
2022-11-29T10:38:28.555Z,7.04
2022-11-29T10:39:42.373Z,7.26
2022-11-29T10:40:47.611Z,7.27
2022-11-29T10:41:56.678Z,7.45
2022-11-29T10:42:58.561Z,7.60
2022-11-29T10:44:00.488Z,7.78
2022-11-29T10:45:02.995Z,7.92
2022-11-29T10:46:06.512Z,8.00
2022-11-29T10:47:11.088Z,8.13
2022-11-29T10:48:16.966Z,8.26
2022-11-29T10:49:21.787Z,8.23
2022-11-29T10:50:28.976Z,8.19
2022-11-29T10:51:32.041Z,8.22
2022-11-29T10:52:34.028Z,8.23
2022-11-29T10:53:38.537Z,8.28
2022-11-29T10:54:44.471Z,8.35
2022-11-29T10:55:46.187Z,8.43
2022-11-29T10:56:48.466Z,8.50
2022-11-29T10:58:13.682Z,8.51
2022-11-29T10:59:23.520Z,8.57
2022-11-29T11:00:25.650Z,8.62
2022-11-29T11:01:29.129Z,8.48
2022-11-29T11:02:31.823Z,8.52
2022-11-29T11:03:52.842Z,8.55
2022-11-29T11:04:54.874Z,8.62
2022-11-29T11:06:07.137Z,8.67
2022-11-29T11:07:23.052Z,8.78
2022-11-29T11:08:26.369Z,8.78
2022-11-29T11:09:34.296Z,8.84
2022-11-29T11:10:35.960Z,8.86
2022-11-29T11:11:38.688Z,8.90
2022-11-29T11:12:40.342Z,8.89
2022-11-29T11:13:42.242Z,8.67
2022-11-29T11:14:45.427Z,8.51
2022-11-29T11:15:47.244Z,8.49
2022-11-29T11:16:49.033Z,8.49
2022-11-29T11:17:59.882Z,8.62
2022-11-29T11:19:27.649Z,8.71
2022-11-29T11:20:31.738Z,8.57
2022-11-29T11:21:38.605Z,8.40
2022-11-29T11:22:41.201Z,8.57
2022-11-29T11:23:46.818Z,8.62
2022-11-29T11:24:57.369Z,8.67
2022-11-29T11:26:03.053Z,8.72
2022-11-29T11:27:04.711Z,8.72
2022-11-29T11:28:15.400Z,8.61
2022-11-29T11:29:25.075Z,8.50
2022-11-29T11:30:29.444Z,8.49
2022-11-29T11:31:34.780Z,8.45
2022-11-29T11:32:37.042Z,8.45
2022-11-29T11:33:41.517Z,8.35
2022-11-29T11:34:52.672Z,8.28
2022-11-29T11:36:01.581Z,8.25
2022-11-29T11:37:15.486Z,8.20
2022-11-29T11:38:17.834Z,8.12
2022-11-29T11:39:22.072Z,8.13
2022-11-29T11:40:29.810Z,8.07
2022-11-29T11:41:49.936Z,8.06
2022-11-29T11:42:51.649Z,8.09
2022-11-29T11:43:58.526Z,8.09
2022-11-29T11:45:01.252Z,8.09
2022-11-29T11:46:03.015Z,8.12
2022-11-29T11:47:24.309Z,8.11
2022-11-29T11:48:27.490Z,8.13
2022-11-29T11:50:08.128Z,8.16
2022-11-29T11:51:24.474Z,8.11
2022-11-29T11:52:39.793Z,8.13
2022-11-29T11:53:44.228Z,8.14
2022-11-29T11:54:51.332Z,8.17
2022-11-29T11:56:03.807Z,8.15
2022-11-29T11:57:15.544Z,8.22
2022-11-29T11:58:22.034Z,8.22
2022-11-29T11:59:26.665Z,8.20
2022-11-29T12:01:20.542Z,8.16
2022-11-29T12:02:35.891Z,8.15
2022-11-29T12:03:59.188Z,8.16
2022-11-29T12:05:02.869Z,8.15
2022-11-29T12:06:38.358Z,8.16
2022-11-29T12:08:09.856Z,8.19
2022-11-29T12:09:26.268Z,8.14
2022-11-29T12:10:31.847Z,8.07
2022-11-29T12:11:50.498Z,8.11
2022-11-29T12:12:53.620Z,8.14
2022-11-29T12:13:59.227Z,8.14
2022-11-29T12:15:24.852Z,8.13
2022-11-29T12:16:34.297Z,8.18
2022-11-29T12:17:49.977Z,8.13
2022-11-29T12:18:57.270Z,8.11
2022-11-29T12:20:17.803Z,8.11
2022-11-29T12:21:27.547Z,8.22
2022-11-29T12:22:37.660Z,8.20
2022-11-29T12:24:12.946Z,8.22
2022-11-29T12:25:22.085Z,8.22
2022-11-29T12:27:52.383Z,8.17
2022-11-29T12:28:54.134Z,8.20
2022-11-29T12:29:56.767Z,8.29
2022-11-29T12:31:44.663Z,8.33
2022-11-29T12:33:00.085Z,8.39
2022-11-29T12:34:22.628Z,8.39
2022-11-29T12:35:37.514Z,8.37
2022-11-29T12:37:05.631Z,8.28
2022-11-29T12:38:34.000Z,8.24
2022-11-29T12:39:43.331Z,8.23
2022-11-29T12:41:07.091Z,8.17
2022-11-29T12:42:39.470Z,8.26
2022-11-29T12:44:05.267Z,8.28
2022-11-29T12:45:40.145Z,8.32
2022-11-29T12:46:54.377Z,8.35
2022-11-29T12:48:06.614Z,8.43
2022-11-29T12:49:34.443Z,8.41
2022-11-29T12:51:06.754Z,8.41
2022-11-29T12:52:34.671Z,8.44
2022-11-29T12:54:33.145Z,8.48
2022-11-29T12:55:46.417Z,8.56
2022-11-29T12:57:13.457Z,8.68
2022-11-29T12:58:45.612Z,8.67
2022-11-29T13:00:03.579Z,8.69
2022-11-29T13:01:21.935Z,8.65
2022-11-29T13:02:35.418Z,8.64
2022-11-29T13:03:47.307Z,8.61
2022-11-29T13:05:01.560Z,8.61
2022-11-29T13:06:29.623Z,8.54
2022-11-29T13:08:07.998Z,8.37
2022-11-29T13:09:27.014Z,8.30
2022-11-29T13:10:49.651Z,8.31
2022-11-29T13:11:54.219Z,8.30
2022-11-29T13:13:03.517Z,8.25
2022-11-29T13:14:40.999Z,8.28
2022-11-29T13:15:43.251Z,8.22
2022-11-29T13:17:02.755Z,8.12
2022-11-29T13:18:31.319Z,8.08
2022-11-29T13:19:44.785Z,8.01
2022-11-29T13:20:57.274Z,7.99
2022-11-29T13:22:20.175Z,7.98
2022-11-29T13:24:07.948Z,7.98
2022-11-29T13:25:21.322Z,7.99
2022-11-29T13:26:26.204Z,7.99
2022-11-29T13:27:32.918Z,7.91
2022-11-29T13:28:37.327Z,7.85
2022-11-29T13:29:38.958Z,7.85
2022-11-29T13:30:40.870Z,7.80
2022-11-29T13:31:44.023Z,7.77
2022-11-29T13:33:12.101Z,7.80
2022-11-29T13:34:17.126Z,7.78
2022-11-29T13:35:25.417Z,7.76
2022-11-29T13:36:39.056Z,7.75
2022-11-29T13:37:55.181Z,7.71
2022-11-29T13:39:08.849Z,7.75
2022-11-29T13:40:30.557Z,7.72
2022-11-29T13:41:45.739Z,7.75
2022-11-29T13:43:03.082Z,7.77
2022-11-29T13:44:16.042Z,7.71
2022-11-29T13:45:40.256Z,7.66
2022-11-29T13:46:41.840Z,7.65
2022-11-29T13:48:27.601Z,7.63
2022-11-29T13:49:51.195Z,7.58
2022-11-29T13:50:52.863Z,7.58
2022-11-29T13:52:06.262Z,7.51
2022-11-29T13:53:23.603Z,7.47
2022-11-29T13:54:27.922Z,7.48
2022-11-29T13:55:31.196Z,7.43
2022-11-29T13:56:46.422Z,7.39
2022-11-29T13:58:15.067Z,7.42
2022-11-29T13:59:22.574Z,7.36
2022-11-29T14:00:34.669Z,7.33
2022-11-29T14:01:56.675Z,7.28
2022-11-29T14:03:23.892Z,7.26
2022-11-29T14:04:39.169Z,7.22
2022-11-29T14:05:41.311Z,7.20
2022-11-29T14:06:43.170Z,7.19
2022-11-29T14:08:54.578Z,7.16
2022-11-29T14:10:02.275Z,7.15
2022-11-29T14:11:06.651Z,7.12
2022-11-29T14:12:39.847Z,7.12
2022-11-29T14:13:41.336Z,7.10
2022-11-29T14:15:00.793Z,7.03
2022-11-29T14:16:04.959Z,7.02
2022-11-29T14:17:29.067Z,6.98
2022-11-29T14:18:36.548Z,7.02
2022-11-29T14:19:38.170Z,7.02
2022-11-29T14:20:39.686Z,6.99
2022-11-29T14:21:59.240Z,6.96
2022-11-29T14:23:06.786Z,6.89
2022-11-29T14:24:35.162Z,6.88
2022-11-29T14:25:52.587Z,6.87
2022-11-29T14:27:06.693Z,6.89
2022-11-29T14:28:14.224Z,6.87
2022-11-29T14:29:55.196Z,6.85
2022-11-29T14:31:01.603Z,6.81
2022-11-29T14:32:03.769Z,6.76
2022-11-29T14:33:21.606Z,6.83
2022-11-29T14:34:29.815Z,6.75
2022-11-29T14:35:37.529Z,6.70
2022-11-29T14:36:52.243Z,6.72
2022-11-29T14:38:31.158Z,6.77
2022-11-29T14:39:49.097Z,6.69
2022-11-29T14:41:03.614Z,6.66
2022-11-29T14:42:20.047Z,6.68
2022-11-29T14:43:37.985Z,6.67
2022-11-29T14:44:48.618Z,6.71
2022-11-29T14:46:15.974Z,6.67
2022-11-29T14:47:24.417Z,6.63
2022-11-29T14:48:27.958Z,6.62
2022-11-29T14:49:31.515Z,6.60
2022-11-29T14:50:37.396Z,6.58
2022-11-29T14:51:39.555Z,6.54
2022-11-29T14:52:51.365Z,6.56
2022-11-29T14:54:02.068Z,6.55
2022-11-29T14:55:08.258Z,6.60
2022-11-29T14:56:31.159Z,6.55
2022-11-29T14:57:50.564Z,6.54
2022-11-29T14:59:29.801Z,6.55
2022-11-29T15:00:55.053Z,6.53
2022-11-29T15:01:57.071Z,6.48
2022-11-29T15:03:03.674Z,6.49
2022-11-29T15:04:06.230Z,6.49
2022-11-29T15:05:10.429Z,6.49
2022-11-29T15:06:17.142Z,6.48
2022-11-29T15:07:25.552Z,6.45
2022-11-29T15:08:27.276Z,6.45
2022-11-29T15:09:32.115Z,6.44
2022-11-29T15:10:39.015Z,6.42
2022-11-29T15:11:50.162Z,6.47
2022-11-29T15:12:52.507Z,6.46
2022-11-29T15:14:19.039Z,6.46
2022-11-29T15:15:29.547Z,6.54
2022-11-29T15:17:15.924Z,6.48
2022-11-29T15:18:27.029Z,6.41
2022-11-29T15:19:31.588Z,6.37
2022-11-29T15:20:37.474Z,6.32
2022-11-29T15:21:54.166Z,6.27
2022-11-29T15:23:00.890Z,6.25
2022-11-29T15:24:15.588Z,6.27
2022-11-29T15:25:23.937Z,6.23
2022-11-29T15:26:25.460Z,6.30
2022-11-29T15:27:27.077Z,6.30
2022-11-29T15:28:29.735Z,6.28
2022-11-29T15:29:31.680Z,6.29
2022-11-29T15:30:36.426Z,6.31
2022-11-29T15:31:42.099Z,6.30
2022-11-29T15:32:44.149Z,6.32
2022-11-29T15:33:48.752Z,6.34
2022-11-29T15:34:53.358Z,6.38
2022-11-29T15:36:03.191Z,6.38
2022-11-29T15:37:04.898Z,6.31
2022-11-29T15:38:06.459Z,6.31
2022-11-29T15:39:25.615Z,6.33
2022-11-29T15:40:36.168Z,6.35
2022-11-29T15:41:45.556Z,6.35
2022-11-29T15:42:52.759Z,6.34
2022-11-29T15:43:58.326Z,6.40
2022-11-29T15:44:59.879Z,6.47
2022-11-29T15:46:01.650Z,6.48
2022-11-29T15:47:16.092Z,6.50
2022-11-29T15:48:23.668Z,6.48
2022-11-29T15:49:27.724Z,6.50
2022-11-29T15:50:33.067Z,6.50
2022-11-29T15:51:38.516Z,6.48
2022-11-29T15:52:40.221Z,6.50
2022-11-29T15:53:47.725Z,6.48
2022-11-29T15:54:55.004Z,6.54
2022-11-29T15:55:58.286Z,6.50
2022-11-29T15:57:04.813Z,6.39
2022-11-29T15:58:09.030Z,6.30
2022-11-29T15:59:41.246Z,6.23
2022-11-29T16:00:49.669Z,6.19
2022-11-29T16:01:57.263Z,6.23